Time;durP1;ratioP1;P1;durP2;ratioP2;P2;SDS_P1;SDS_P2;PMS_P1;PMS_P2;Temp;Humidity;BMP_temperature;BMP_pressure;BME280_temperature;BME280_humidity;BME280_pressure;Samples;Min_cycle;Max_cycle;Signal;HPM_P1;HPM_P2
2022/03/11 00:02:18;;;;;;;10.80;5.03;;;;;;;1.37;33.43;96717.19;5095517;28;20043;-75
2022/03/11 00:04:46;;;;;;;11.55;5.40;;;;;;;1.39;34.31;96716.91;5108578;28;20039;-78
2022/03/11 00:07:12;;;;;;;10.80;5.00;;;;;;;1.34;33.60;96719.53;5105156;27;20100;-75
2022/03/11 00:09:39;;;;;;;10.73;5.18;;;;;;;1.35;33.67;96726.53;5109354;28;20051;-75
2022/03/11 00:12:07;;;;;;;15.98;5.85;;;;;;;1.33;33.42;96717.94;5108157;28;20047;-75
2022/03/11 00:14:34;;;;;;;9.40;5.15;;;;;;;1.29;33.87;96712.25;5109128;28;20471;-75
2022/03/11 00:17:02;;;;;;;13.82;7.35;;;;;;;1.27;33.82;96711.69;5108210;28;20055;-75
2022/03/11 00:19:29;;;;;;;12.02;5.68;;;;;;;1.26;34.91;96713.56;5109243;28;20052;-77
2022/03/11 00:21:56;;;;;;;12.10;5.03;;;;;;;1.21;34.17;96721.56;5108159;28;20096;-76
2022/03/11 00:24:23;;;;;;;13.20;5.75;;;;;;;1.19;33.89;96720.97;5107720;28;20096;-78
2022/03/11 00:26:49;;;;;;;10.02;4.80;;;;;;;1.15;34.59;96727.91;5108080;28;20050;-75
2022/03/11 00:29:16;;;;;;;10.73;5.18;;;;;;;1.17;34.10;96731.16;5107914;28;20075;-76
2022/03/11 00:31:44;;;;;;;8.63;4.13;;;;;;;1.17;34.64;96730.34;5109099;28;20054;-75
2022/03/11 00:34:14;;;;;;;10.45;5.40;;;;;;;1.14;34.90;96726.28;5107944;28;20054;-76
2022/03/11 00:36:43;;;;;;;10.95;4.53;;;;;;;1.16;34.61;96737.59;5108565;28;20718;-75
2022/03/11 00:39:10;;;;;;;12.10;4.80;;;;;;;1.11;34.94;96728.66;5108489;28;20067;-76
2022/03/11 00:41:36;;;;;;;13.55;5.32;;;;;;;1.05;34.79;96717.06;5109474;28;20457;-75
2022/03/11 00:44:03;;;;;;;12.98;5.30;;;;;;;1.00;35.80;96717.00;5109359;28;20043;-75
2022/03/11 00:46:29;;;;;;;11.75;5.57;;;;;;;0.95;35.47;96720.41;5112234;28;20048;-78
2022/03/11 00:48:56;;;;;;;9.73;4.90;;;;;;;0.90;36.01;96719.53;5109845;28;20703;-77
2022/03/11 00:51:24;;;;;;;12.52;5.82;;;;;;;0.91;35.95;96710.41;5126443;27;20294;-76
2022/03/11 00:53:50;;;;;;;11.30;5.75;;;;;;;0.89;36.59;96701.78;5130232;27;20054;-75
2022/03/11 00:56:17;;;;;;;12.52;5.03;;;;;;;0.82;36.39;96701.19;5127776;27;20047;-76
2022/03/11 00:58:45;;;;;;;10.43;5.75;;;;;;;0.81;36.74;96694.19;5130133;27;20551;-77
2022/03/11 01:01:12;;;;;;;12.70;5.47;;;;;;;0.80;36.85;96695.25;5129102;27;20046;-75
2022/03/11 01:03:38;;;;;;;13.00;5.35;;;;;;;0.75;36.97;96694.13;5130939;27;20422;-75
2022/03/11 01:06:05;;;;;;;9.50;4.93;;;;;;;0.69;37.26;96687.06;5127883;27;20052;-76
2022/03/11 01:08:33;;;;;;;13.32;6.13;;;;;;;0.65;37.42;96687.81;5110675;28;20122;-75
2022/03/11 01:11:00;;;;;;;11.95;6.07;;;;;;;0.60;37.55;96682.38;5108005;28;20048;-76
2022/03/11 01:13:27;;;;;;;15.30;6.03;;;;;;;0.55;37.76;96675.06;5106920;28;20044;-75
2022/03/11 01:15:53;;;;;;;11.93;6.00;;;;;;;0.56;37.68;96676.69;5107322;28;20050;-76
2022/03/11 01:18:20;;;;;;;13.70;6.53;;;;;;;0.52;38.15;96686.28;5107393;28;20051;-76
2022/03/11 01:20:46;;;;;;;11.63;5.82;;;;;;;0.48;38.51;96680.63;5108687;28;20047;-78
2022/03/11 01:23:13;;;;;;;10.82;5.50;;;;;;;0.46;38.33;96677.34;5106568;28;20048;-75
2022/03/11 01:25:42;;;;;;;13.15;5.80;;;;;;;0.44;38.54;96674.13;5107420;28;20044;-75
2022/03/11 01:28:09;;;;;;;10.45;5.72;;;;;;;0.40;38.71;96672.16;5106360;28;20399;-75
2022/03/11 01:30:35;;;;;;;10.07;5.05;;;;;;;0.38;38.51;96679.66;5108026;28;20118;-76
2022/03/11 01:33:02;;;;;;;13.93;6.20;;;;;;;0.38;38.79;96676.97;5106479;28;20040;-77
2022/03/11 01:35:28;;;;;;;12.98;6.22;;;;;;;0.37;38.88;96667.31;5107401;28;20044;-76
2022/03/11 01:37:55;;;;;;;12.43;5.95;;;;;;;0.31;38.87;96665.59;5106649;28;20056;-75
2022/03/11 01:40:22;;;;;;;11.75;5.70;;;;;;;0.32;39.13;96667.25;5106968;28;20051;-75
2022/03/11 01:42:50;;;;;;;12.45;5.75;;;;;;;0.28;39.45;96663.44;5107362;28;20051;-78
2022/03/11 01:45:17;;;;;;;10.55;6.00;;;;;;;0.30;39.55;96666.66;5105738;28;20048;-76
2022/03/11 01:47:43;;;;;;;10.68;5.88;;;;;;;0.25;39.62;96660.16;5107406;28;20056;-76
2022/03/11 01:50:11;;;;;;;12.43;6.20;;;;;;;0.17;39.61;96663.28;5101013;28;20055;-77
2022/03/11 01:52:38;;;;;;;9.13;5.15;;;;;;;0.18;39.78;96656.03;5087003;28;20679;-75
2022/03/11 01:55:06;;;;;;;12.95;6.50;;;;;;;0.14;39.67;96647.69;5085034;28;20043;-76
2022/03/11 01:57:35;;;;;;;13.63;6.40;;;;;;;0.12;40.88;96649.81;5086724;28;20717;-75
2022/03/11 02:00:04;;;;;;;14.25;6.28;;;;;;;0.14;40.12;96650.34;5086199;28;20054;-75
2022/03/11 02:02:31;;;;;;;12.05;5.80;;;;;;;0.10;40.30;96651.88;5086465;28;20483;-75
2022/03/11 02:04:58;;;;;;;14.20;6.22;;;;;;;0.10;40.23;96651.88;5085679;28;20131;-77
2022/03/11 02:07:25;;;;;;;13.52;6.07;;;;;;;0.08;40.19;96653.22;5082360;28;20044;-77
2022/03/11 02:09:52;;;;;;;11.50;6.00;;;;;;;0.04;40.57;96636.81;5106974;28;20051;-75
2022/03/11 02:12:28;;;;;;;13.07;6.15;;;;;;;0.06;40.48;96640.06;5105482;28;20054;-75
2022/03/11 02:14:55;;;;;;;13.10;6.50;;;;;;;0.06;40.71;96640.06;5106760;28;20052;-75
2022/03/11 02:17:23;;;;;;;11.25;5.72;;;;;;;0.01;40.52;96648.03;5105767;28;20051;-74
2022/03/11 02:19:50;;;;;;;11.18;6.20;;;;;;;-0.02;40.87;96646.63;5107235;28;20047;-75
2022/03/11 02:22:18;;;;;;;10.32;5.28;;;;;;;-0.02;40.95;96645.81;5105688;28;20050;-76
2022/03/11 02:24:46;;;;;;;15.35;6.18;;;;;;;0.02;41.01;96646.16;5105601;28;20127;-75
2022/03/11 02:27:12;;;;;;;11.60;6.13;;;;;;;0.01;40.62;96645.34;5105732;28;20466;-75
2022/03/11 02:29:39;;;;;;;12.55;6.15;;;;;;;-0.03;41.07;96647.69;5101647;28;20806;-76
2022/03/11 02:32:06;;;;;;;12.30;5.93;;;;;;;-0.04;41.29;96650.63;5086013;28;20058;-75
2022/03/11 02:34:33;;;;;;;13.00;6.32;;;;;;;-0.06;41.74;96650.84;5085262;28;20070;-76
2022/03/11 02:36:59;;;;;;;13.10;6.00;;;;;;;-0.06;41.92;96658.06;5085690;28;20052;-75
2022/03/11 02:39:26;;;;;;;13.40;6.00;;;;;;;-0.13;42.25;96652.06;5085413;28;20513;-75
2022/03/11 02:41:54;;;;;;;14.35;6.25;;;;;;;-0.13;42.27;96649.38;5086591;28;20101;-75
2022/03/11 02:44:23;;;;;;;13.60;6.15;;;;;;;-0.11;42.45;96650.75;5084961;28;20054;-75
2022/03/11 02:46:49;;;;;;;13.80;6.15;;;;;;;-0.22;42.77;96648.16;5086402;28;20136;-76
2022/03/11 02:49:16;;;;;;;13.27;5.88;;;;;;;-0.22;42.95;96648.16;5086108;28;20143;-76
2022/03/11 02:51:43;;;;;;;11.75;6.53;;;;;;;-0.21;42.71;96641.75;5103759;28;20051;-75
2022/03/11 02:54:09;;;;;;;16.17;6.35;;;;;;;-0.21;43.07;96649.78;5106507;28;20077;-76
2022/03/11 02:56:36;;;;;;;12.13;6.20;;;;;;;-0.19;43.32;96653.03;5107522;28;20047;-77
2022/03/11 02:59:04;;;;;;;13.77;6.68;;;;;;;-0.17;42.72;96650.91;5108007;28;20047;-77
2022/03/11 03:01:32;;;;;;;12.57;6.13;;;;;;;-0.23;42.95;96642.00;5086166;28;20044;-75
2022/03/11 03:03:58;;;;;;;12.70;6.25;;;;;;;-0.23;43.05;96651.88;5086883;28;20060;-76
2022/03/11 03:06:25;;;;;;;15.18;5.90;;;;;;;-0.25;43.16;96645.97;5090355;28;20043;-76
2022/03/11 03:08:51;;;;;;;12.93;6.68;;;;;;;-0.29;43.52;96649.13;5106722;28;20401;-75
2022/03/11 03:11:18;;;;;;;11.77;6.88;;;;;;;-0.27;43.63;96641.66;5105516;28;20047;-76
2022/03/11 03:13:45;;;;;;;16.08;6.72;;;;;;;-0.25;43.42;96643.31;5105910;28;20055;-75
2022/03/11 03:16:13;;;;;;;15.27;6.68;;;;;;;-0.27;43.71;96646.19;5105330;28;20044;-75
2022/03/11 03:18:39;;;;;;;13.43;6.65;;;;;;;-0.28;43.80;96642.72;5105617;28;20055;-76
2022/03/11 03:21:06;;;;;;;12.05;6.50;;;;;;;-0.25;43.59;96646.78;5105843;28;20043;-76
2022/03/11 03:23:32;;;;;;;16.42;7.22;;;;;;;-0.28;43.62;96645.38;5107672;28;20059;-76
2022/03/11 03:26:00;;;;;;;13.75;6.45;;;;;;;-0.33;43.94;96636.47;5107343;28;20054;-74
2022/03/11 03:28:27;;;;;;;14.77;6.65;;;;;;;-0.37;44.39;96638.81;5106500;28;20064;-76
2022/03/11 03:30:53;;;;;;;17.40;7.47;;;;;;;-0.43;44.26;96637.09;5106981;28;20055;-76
2022/03/11 03:33:21;;;;;;;15.25;7.00;;;;;;;-0.42;44.49;96641.41;5104257;28;20048;-76
2022/03/11 03:35:48;;;;;;;15.45;7.20;;;;;;;-0.45;44.77;96643.75;5105179;28;20055;-75
2022/03/11 03:38:14;;;;;;;18.00;7.72;;;;;;;-0.47;45.32;96638.66;5107199;27;20055;-74
2022/03/11 03:40:41;;;;;;;16.23;6.88;;;;;;;-0.46;45.07;96642.94;5104371;27;20047;-76
2022/03/11 03:43:08;;;;;;;19.10;8.30;;;;;;;-0.44;44.55;96634.69;5107535;28;20666;-75
2022/03/11 03:45:34;;;;;;;20.55;9.32;;;;;;;-0.46;45.52;96632.25;5104026;27;20043;-76
2022/03/11 03:48:01;;;;;;;15.57;8.15;;;;;;;-0.45;45.37;96639.22;5107385;28;20054;-75
2022/03/11 03:50:29;;;;;;;18.65;6.95;;;;;;;-0.46;45.21;96642.94;5107699;28;20039;-75
2022/03/11 03:52:56;;;;;;;14.57;6.70;;;;;;;-0.45;45.06;96649.09;5107937;28;20094;-75
2022/03/11 03:55:22;;;;;;;14.23;7.28;;;;;;;-0.49;45.19;96642.59;5107099;28;20043;-76
2022/03/11 03:57:49;;;;;;;16.98;7.60;;;;;;;-0.48;45.41;96637.00;5108102;28;20043;-76
2022/03/11 04:00:16;;;;;;;14.57;6.70;;;;;;;-0.48;45.54;96634.34;5107518;28;20044;-77
2022/03/11 04:02:47;;;;;;;15.77;7.35;;;;;;;-0.51;45.90;96644.72;5109613;28;20526;-75
2022/03/11 04:05:14;;;;;;;15.85;7.28;;;;;;;-0.53;45.88;96635.06;5107875;28;20048;-77
2022/03/11 04:07:43;;;;;;;16.80;7.80;;;;;;;-0.61;45.96;96637.31;5108459;28;20100;-75
2022/03/11 04:10:10;;;;;;;16.35;7.30;;;;;;;-0.61;46.36;96634.66;5109133;28;20058;-75
2022/03/11 04:12:36;;;;;;;16.08;7.70;;;;;;;-0.67;46.58;96636.44;5108304;28;20436;-78
2022/03/11 04:15:03;;;;;;;16.08;8.25;;;;;;;-0.67;46.65;96633.75;5107979;28;20051;-77
2022/03/11 04:17:30;;;;;;;15.35;6.82;;;;;;;-0.73;46.93;96631.19;5107665;28;20638;-76
2022/03/11 04:19:56;;;;;;;17.48;7.95;;;;;;;-0.76;47.08;96626.34;5108830;28;20505;-76
2022/03/11 04:22:23;;;;;;;17.25;7.47;;;;;;;-0.77;47.19;96625.53;5108040;28;20044;-75
2022/03/11 04:24:51;;;;;;;22.75;9.80;;;;;;;-0.81;47.25;96630.53;5107138;28;20055;-78
2022/03/11 04:27:17;;;;;;;15.07;6.63;;;;;;;-0.79;47.48;96628.44;5107555;28;20044;-77
2022/03/11 04:29:44;;;;;;;21.60;7.57;;;;;;;-0.85;47.26;96629.38;5108382;28;20059;-78
2022/03/11 04:32:10;;;;;;;17.85;7.53;;;;;;;-0.87;47.71;96625.34;5107525;28;20067;-77
2022/03/11 04:34:37;;;;;;;19.08;8.40;;;;;;;-0.84;47.94;96633.69;5106671;28;20054;-76
2022/03/11 04:37:04;;;;;;;19.77;8.10;;;;;;;-0.83;48.00;96626.50;5108281;28;20050;-76
2022/03/11 04:39:31;;;;;;;17.98;7.65;;;;;;;-0.81;47.92;96625.19;5108176;28;20055;-75
2022/03/11 04:41:59;;;;;;;16.02;7.45;;;;;;;-0.82;47.88;96620.91;5108548;28;20054;-77
2022/03/11 04:44:25;;;;;;;16.90;7.75;;;;;;;-0.84;47.85;96620.31;5106722;28;20044;-77
2022/03/11 04:46:52;;;;;;;17.40;8.18;;;;;;;-0.79;48.12;96623.09;5107472;27;20043;-78
2022/03/11 04:49:18;;;;;;;17.98;7.53;;;;;;;-0.79;47.80;96620.41;5107160;28;20051;-78
2022/03/11 04:51:45;;;;;;;17.00;7.70;;;;;;;-0.79;48.15;96625.75;5107831;28;20054;-78
2022/03/11 04:54:11;;;;;;;15.68;7.13;;;;;;;-0.79;48.44;96620.41;5107813;28;20047;-77
2022/03/11 04:56:38;;;;;;;15.75;7.10;;;;;;;-0.81;48.52;96616.38;5107117;28;20059;-76
2022/03/11 04:59:06;;;;;;;16.83;8.35;;;;;;;-0.80;48.53;96618.78;5107656;28;20043;-78
2022/03/11 05:01:33;;;;;;;17.63;8.48;;;;;;;-0.82;48.59;96623.56;5107434;28;20407;-77
2022/03/11 05:03:59;;;;;;;18.98;8.98;;;;;;;-0.84;48.32;96614.97;5107587;28;20630;-77
2022/03/11 05:06:26;;;;;;;18.20;7.53;;;;;;;-0.87;48.89;96610.13;5106489;28;20059;-77
2022/03/11 05:08:53;;;;;;;20.85;10.18;;;;;;;-0.89;49.06;96612.22;5106633;28;20059;-78
2022/03/11 05:11:19;;;;;;;18.00;8.25;;;;;;;-0.94;49.06;96605.94;5107799;28;20076;-77
2022/03/11 05:13:46;;;;;;;20.63;9.20;;;;;;;-0.95;49.04;96610.47;5106019;28;20074;-78
2022/03/11 05:16:14;;;;;;;21.92;8.25;;;;;;;-0.97;49.72;96609.91;5106625;28;20054;-77
2022/03/11 05:18:40;;;;;;;21.83;9.27;;;;;;;-0.96;49.50;96606.19;5106568;28;20085;-75
2022/03/11 05:21:07;;;;;;;19.67;8.85;;;;;;;-1.02;49.96;96601.81;5106993;28;20056;-77
2022/03/11 05:23:33;;;;;;;17.83;7.63;;;;;;;-1.05;50.13;96602.28;5106330;28;20051;-77
2022/03/11 05:26:00;;;;;;;15.60;8.23;;;;;;;-1.11;50.06;96605.91;5107107;28;20051;-76
2022/03/11 05:28:26;;;;;;;20.30;8.48;;;;;;;-1.11;50.42;96605.91;5106712;28;20050;-77
2022/03/11 05:30:53;;;;;;;22.30;9.85;;;;;;;-1.11;50.67;96601.38;5107537;28;20044;-78
2022/03/11 05:33:21;;;;;;;16.80;8.13;;;;;;;-1.16;51.07;96605.78;5106729;28;20162;-77
2022/03/11 05:35:48;;;;;;;17.67;8.40;;;;;;;-1.22;50.79;96612.91;5106780;28;20058;-77
2022/03/11 05:38:14;;;;;;;21.33;8.27;;;;;;;-1.21;51.18;96603.84;5107667;28;20556;-78
2022/03/11 05:40:41;;;;;;;22.90;9.27;;;;;;;-1.20;51.42;96604.63;5107056;28;20505;-78
2022/03/11 05:43:08;;;;;;;19.35;9.20;;;;;;;-1.22;51.32;96606.75;5107657;28;20052;-77
2022/03/11 05:45:35;;;;;;;20.98;9.75;;;;;;;-1.23;51.49;96602.47;5105891;28;20096;-77
2022/03/11 05:48:02;;;;;;;21.05;9.85;;;;;;;-1.24;51.59;96603.50;5107168;28;20058;-78
2022/03/11 05:50:30;;;;;;;18.55;8.57;;;;;;;-1.25;52.04;96599.19;5106666;28;20043;-78
2022/03/11 05:52:56;;;;;;;20.75;9.05;;;;;;;-1.29;51.62;96598.06;5107792;28;20043;-78
2022/03/11 05:55:23;;;;;;;21.60;9.18;;;;;;;-1.29;51.88;96600.75;5105859;28;20059;-77
2022/03/11 05:57:50;;;;;;;18.75;8.35;;;;;;;-1.30;52.01;96610.63;5108567;28;20067;-76
2022/03/11 06:00:17;;;;;;;16.15;7.55;;;;;;;-1.32;51.83;96610.03;5109035;28;20047;-76
2022/03/11 06:02:44;;;;;;;18.58;8.98;;;;;;;-1.32;52.00;96612.69;5108448;28;20058;-77
2022/03/11 06:05:10;;;;;;;16.95;8.77;;;;;;;-1.30;52.21;96615.16;5108337;28;20048;-77
2022/03/11 06:07:39;;;;;;;20.40;8.82;;;;;;;-1.22;52.42;96614.75;5108571;28;20582;-77
2022/03/11 06:10:07;;;;;;;20.88;8.63;;;;;;;-1.18;52.08;96616.72;5108813;28;20044;-78
2022/03/11 06:12:34;;;;;;;20.70;9.13;;;;;;;-1.15;51.80;96621.63;5108085;28;20051;-77
2022/03/11 06:15:00;;;;;;;19.88;9.32;;;;;;;-1.16;52.15;96616.47;5107976;28;20052;-75
2022/03/11 06:17:27;;;;;;;17.10;8.40;;;;;;;-1.12;51.52;96626.47;5109118;27;20039;-75
2022/03/11 06:19:53;;;;;;;18.83;9.40;;;;;;;-1.07;51.72;96625.75;5108216;28;20052;-77
2022/03/11 06:22:20;;;;;;;20.08;8.68;;;;;;;-1.09;51.92;96627.88;5108362;28;20051;-75
2022/03/11 06:24:48;;;;;;;19.58;9.40;;;;;;;-1.05;52.01;96626.31;5109037;28;20043;-76
2022/03/11 06:27:15;;;;;;;20.88;8.73;;;;;;;-1.03;51.78;96620.75;5109077;28;20051;-77
2022/03/11 06:29:44;;;;;;;15.93;8.93;;;;;;;-0.97;52.10;96631.31;5107295;28;20056;-77
2022/03/11 06:32:11;;;;;;;15.45;8.20;;;;;;;-0.94;51.82;96630.84;5107556;28;20044;-77
2022/03/11 06:34:38;;;;;;;18.15;8.65;;;;;;;-0.87;51.64;96631.50;5105597;28;20422;-77
2022/03/11 06:37:04;;;;;;;17.65;8.57;;;;;;;-0.83;51.53;96638.00;5107641;28;20126;-75
2022/03/11 06:39:31;;;;;;;18.17;8.77;;;;;;;-0.76;51.63;96645.88;5106979;28;20043;-76
2022/03/11 06:41:59;;;;;;;19.00;10.60;;;;;;;-0.69;51.67;96637.69;5107018;28;20047;-77
2022/03/11 06:44:26;;;;;;;18.25;9.80;;;;;;;-0.64;51.36;96640.47;5105763;28;20623;-77
2022/03/11 06:46:52;;;;;;;18.65;9.40;;;;;;;-0.57;51.24;96641.16;5105082;28;20139;-78
2022/03/11 06:49:19;;;;;;;18.23;8.90;;;;;;;-0.55;51.26;96644.38;5107082;28;20466;-76
2022/03/11 06:51:45;;;;;;;17.52;9.07;;;;;;;-0.48;51.03;96654.94;5106299;28;20079;-78
2022/03/11 06:54:12;;;;;;;19.30;9.77;;;;;;;-0.48;51.02;96655.75;5106061;28;20047;-77
2022/03/11 06:56:39;;;;;;;22.20;9.90;;;;;;;-0.45;51.23;96644.56;5105100;28;20418;-77
2022/03/11 06:59:07;;;;;;;22.15;9.85;;;;;;;-0.34;50.66;96643.69;5104683;28;20680;-78
2022/03/11 07:01:33;;;;;;;20.50;9.77;;;;;;;-0.27;50.41;96646.19;5104128;28;20052;-78
2022/03/11 07:04:01;;;;;;;27.20;10.43;;;;;;;-0.19;50.56;96655.72;5104961;28;20039;-78
2022/03/11 07:06:28;;;;;;;24.00;9.80;;;;;;;-0.14;50.26;96661.97;5103932;28;20733;-78
2022/03/11 07:08:55;;;;;;;23.17;10.68;;;;;;;-0.06;50.15;96658.88;5104112;28;20100;-77
2022/03/11 07:11:21;;;;;;;29.65;9.70;;;;;;;0.03;50.31;96661.97;5107284;28;20059;-78
2022/03/11 07:13:48;;;;;;;22.35;9.90;;;;;;;0.09;49.96;96671.69;5109535;28;20622;-78
2022/03/11 07:16:16;;;;;;;19.20;9.30;;;;;;;0.23;49.43;96673.00;5108237;28;20075;-76
2022/03/11 07:18:42;;;;;;;21.23;9.95;;;;;;;0.54;49.10;96673.47;5108358;28;20047;-76
2022/03/11 07:21:09;;;;;;;22.00;9.95;;;;;;;1.01;47.81;96678.38;5108925;28;20052;-76
2022/03/11 07:23:35;;;;;;;22.45;9.48;;;;;;;1.45;46.95;96679.16;5108882;28;20051;-76
2022/03/11 07:26:02;;;;;;;16.85;8.90;;;;;;;1.93;45.75;96682.88;5108802;28;20051;-76
2022/03/11 07:28:29;;;;;;;21.33;9.63;;;;;;;2.45;44.53;96682.19;5109247;28;20047;-76
2022/03/11 07:30:56;;;;;;;21.60;9.48;;;;;;;2.72;43.31;96675.94;5109427;28;20553;-77
2022/03/11 07:33:24;;;;;;;21.75;10.43;;;;;;;2.61;43.34;96670.50;5108820;28;20052;-76
2022/03/11 07:35:51;;;;;;;21.30;10.27;;;;;;;2.55;43.45;96673.41;5108254;28;20054;-76
2022/03/11 07:38:17;;;;;;;17.02;9.65;;;;;;;2.51;44.07;96675.00;5109475;28;20043;-76
2022/03/11 07:40:44;;;;;;;22.75;9.65;;;;;;;2.71;43.89;96669.72;5109049;28;20051;-76
2022/03/11 07:43:13;;;;;;;17.92;9.48;;;;;;;3.19;42.73;96659.78;5108873;28;20050;-76
2022/03/11 07:45:39;;;;;;;20.88;9.93;;;;;;;3.82;41.40;96671.25;5107783;28;20066;-74
2022/03/11 07:48:06;;;;;;;18.63;9.77;;;;;;;4.22;40.24;96666.97;5109817;28;20040;-77
2022/03/11 07:50:35;;;;;;;18.75;10.15;;;;;;;4.68;39.32;96659.66;5108564;28;20406;-75
2022/03/11 07:53:02;;;;;;;24.13;10.30;;;;;;;5.02;38.38;96660.94;5109112;28;20067;-74
2022/03/11 07:55:29;;;;;;;18.38;9.02;;;;;;;5.35;37.43;96656.75;5108516;28;20047;-75
2022/03/11 07:57:57;;;;;;;19.15;10.85;;;;;;;5.62;36.83;96661.75;5109144;28;20047;-75
2022/03/11 08:00:25;;;;;;;24.75;9.57;;;;;;;5.91;36.29;96665.41;5108658;28;20047;-75
2022/03/11 08:02:51;;;;;;;20.40;10.55;;;;;;;6.19;35.78;96658.44;5109101;28;20053;-75
2022/03/11 08:05:18;;;;;;;25.77;10.23;;;;;;;6.47;35.40;96656.88;5108807;28;20048;-75
2022/03/11 08:07:48;;;;;;;19.75;9.60;;;;;;;6.88;34.05;96658.34;5107240;28;20051;-76
2022/03/11 08:10:14;;;;;;;20.23;9.95;;;;;;;6.87;33.82;96662.97;5108932;28;20050;-76
2022/03/11 08:12:41;;;;;;;19.55;9.77;;;;;;;7.12;33.76;96652.97;5109007;28;20082;-75
2022/03/11 08:15:11;;;;;;;18.25;10.43;;;;;;;7.51;33.90;96658.97;5108900;28;20048;-75
2022/03/11 08:17:38;;;;;;;18.80;10.68;;;;;;;8.02;32.90;96668.31;5109047;28;20677;-75
2022/03/11 08:20:06;;;;;;;23.02;11.52;;;;;;;8.55;31.95;96659.91;5108641;28;20051;-75
2022/03/11 08:22:34;;;;;;;18.00;9.98;;;;;;;8.96;30.90;96653.78;5109909;28;20047;-74
2022/03/11 08:25:02;;;;;;;17.55;10.15;;;;;;;9.43;31.44;96662.66;5110075;28;20138;-76
2022/03/11 08:27:30;;;;;;;17.95;9.50;;;;;;;10.01;28.62;96662.75;5110320;28;20064;-74
2022/03/11 08:29:56;;;;;;;16.98;9.05;;;;;;;10.08;28.71;96662.34;5110044;28;20061;-76
2022/03/11 08:32:22;;;;;;;14.88;9.27;;;;;;;10.09;28.31;96659.31;5110750;28;20036;-74
2022/03/11 08:34:49;;;;;;;15.63;9.48;;;;;;;10.01;28.56;96651.88;5110364;28;20043;-74
2022/03/11 08:37:18;;;;;;;17.45;9.75;;;;;;;10.01;28.60;96646.44;5109292;28;20043;-74
2022/03/11 08:39:44;;;;;;;17.08;9.98;;;;;;;9.72;28.62;96648.72;5111045;28;20043;-76
2022/03/11 08:42:12;;;;;;;21.20;10.60;;;;;;;9.82;29.11;96649.31;5110085;28;20046;-75
2022/03/11 08:44:39;;;;;;;15.23;9.30;;;;;;;9.84;28.80;96646.28;5112039;28;20055;-75
2022/03/11 08:47:05;;;;;;;18.42;10.57;;;;;;;10.06;29.19;96643.59;5114287;28;20138;-75
2022/03/11 08:49:32;;;;;;;16.42;9.27;;;;;;;10.31;28.41;96641.44;5115416;28;20063;-74
2022/03/11 08:51:59;;;;;;;15.25;8.95;;;;;;;10.29;28.85;96639.03;5112914;28;20723;-75
2022/03/11 08:54:25;;;;;;;18.00;9.88;;;;;;;10.18;28.17;96643.88;5115011;28;20058;-76
2022/03/11 08:56:54;;;;;;;17.05;9.13;;;;;;;9.96;28.23;96648.47;5110412;28;20052;-73
2022/03/11 08:59:22;;;;;;;19.15;9.73;;;;;;;10.10;28.51;96650.03;5109864;28;20671;-74
2022/03/11 09:01:49;;;;;;;17.85;9.40;;;;;;;10.27;27.66;96649.41;5113649;28;20044;-75
2022/03/11 09:04:16;;;;;;;18.52;10.23;;;;;;;10.11;28.35;96640.75;5112953;28;20638;-75
2022/03/11 09:06:42;;;;;;;15.63;9.05;;;;;;;9.77;28.50;96646.72;5112639;28;20062;-75
2022/03/11 09:09:09;;;;;;;15.43;9.50;;;;;;;9.79;28.65;96641.75;5112191;28;20047;-76
2022/03/11 09:11:36;;;;;;;19.95;9.52;;;;;;;9.68;28.79;96637.66;5112148;28;20058;-75
2022/03/11 09:14:02;;;;;;;17.77;9.60;;;;;;;9.63;29.09;96638.56;5110994;28;20044;-76
2022/03/11 09:16:31;;;;;;;18.30;9.40;;;;;;;9.63;28.72;96641.28;5112319;28;20043;-75
2022/03/11 09:19:01;;;;;;;16.33;10.07;;;;;;;9.52;29.50;96639.91;5112184;28;20062;-76
2022/03/11 09:21:28;;;;;;;19.13;10.55;;;;;;;9.53;29.73;96646.94;5112848;28;20046;-75
2022/03/11 09:23:55;;;;;;;18.30;9.68;;;;;;;9.41;29.55;96641.22;5111929;28;20055;-75
2022/03/11 09:26:21;;;;;;;19.17;10.45;;;;;;;9.26;29.48;96638.81;5110680;28;20048;-76
2022/03/11 09:28:48;;;;;;;20.38;10.00;;;;;;;9.26;29.79;96636.09;5112324;28;20073;-76
2022/03/11 09:31:15;;;;;;;18.60;10.73;;;;;;;9.06;29.80;96624.50;5110488;28;20550;-75
2022/03/11 09:33:43;;;;;;;16.23;9.90;;;;;;;9.09;30.19;96625.84;5107061;28;20059;-74
2022/03/11 09:36:10;;;;;;;17.00;9.70;;;;;;;9.52;30.23;96623.59;5105689;28;20054;-74
2022/03/11 09:38:37;;;;;;;18.75;10.18;;;;;;;9.67;29.62;96622.47;5107953;28;20048;-74
2022/03/11 09:41:05;;;;;;;20.90;10.77;;;;;;;9.94;29.03;96613.41;5107138;28;20073;-75
2022/03/11 09:43:32;;;;;;;20.15;9.90;;;;;;;10.09;28.81;96615.78;5109658;28;20048;-74
2022/03/11 09:45:59;;;;;;;17.80;10.82;;;;;;;10.03;28.93;96608.84;5108461;28;20043;-74
2022/03/11 09:48:26;;;;;;;17.85;9.60;;;;;;;10.23;28.50;96617.63;5110881;28;20051;-75
2022/03/11 09:50:55;;;;;;;18.58;10.07;;;;;;;10.33;28.24;96617.41;5107552;28;20043;-75
2022/03/11 09:53:22;;;;;;;17.95;9.88;;;;;;;10.39;29.39;96613.47;5107409;28;20044;-74
2022/03/11 09:55:48;;;;;;;16.77;10.45;;;;;;;10.58;28.15;96616.78;5106077;28;20238;-74
2022/03/11 09:58:16;;;;;;;17.92;9.98;;;;;;;10.99;27.23;96615.72;5106552;28;20056;-74
2022/03/11 10:00:43;;;;;;;19.83;10.32;;;;;;;11.05;27.23;96617.19;5106553;28;20058;-74
2022/03/11 10:03:09;;;;;;;18.40;9.52;;;;;;;11.04;27.41;96618.31;5105800;28;20316;-74
2022/03/11 10:05:47;;;;;;;17.73;10.43;;;;;;;11.22;26.65;96611.81;5106238;28;20052;-75
2022/03/11 10:08:15;;;;;;;16.67;9.77;;;;;;;11.32;26.81;96612.63;5106829;28;20101;-74
2022/03/11 10:10:42;;;;;;;19.35;9.65;;;;;;;11.17;27.05;96614.69;5108741;28;20051;-74
2022/03/11 10:13:11;;;;;;;17.98;9.85;;;;;;;11.21;27.40;96601.22;5108920;28;20136;-76
2022/03/11 10:15:39;;;;;;;18.08;10.65;;;;;;;11.27;27.58;96607.31;5107783;28;20746;-73
2022/03/11 10:18:08;;;;;;;20.10;10.50;;;;;;;11.23;27.21;96605.25;5107075;28;20043;-74
2022/03/11 10:20:34;;;;;;;17.77;10.25;;;;;;;11.16;27.18;96614.97;5109816;28;20040;-74
2022/03/11 10:23:08;;;;;;;17.45;10.65;;;;;;;10.85;27.22;96606.81;5109397;28;20062;-75
2022/03/11 10:25:36;;;;;;;16.08;10.30;;;;;;;10.73;28.10;96617.50;5107847;28;20043;-75
2022/03/11 10:28:04;;;;;;;17.30;10.25;;;;;;;10.47;27.55;96620.06;5108042;28;20051;-74
2022/03/11 10:30:32;;;;;;;17.85;10.00;;;;;;;10.42;28.36;96610.13;5106570;28;20136;-75
2022/03/11 10:33:00;;;;;;;16.65;9.82;;;;;;;10.43;27.46;96617.97;5107445;28;20052;-74
2022/03/11 10:35:31;;;;;;;18.30;9.57;;;;;;;10.53;27.98;96611.47;5106109;28;20050;-73
2022/03/11 10:38:01;;;;;;;22.60;9.90;;;;;;;10.51;28.26;96610.97;5107665;28;20126;-74
2022/03/11 10:40:29;;;;;;;18.02;9.57;;;;;;;10.32;27.63;96618.53;5106275;28;20689;-74
2022/03/11 10:43:18;;;;;;;18.15;9.80;;;;;;;10.09;27.94;96609.53;5106723;28;20063;-74
2022/03/11 10:45:50;;;;;;;19.58;10.23;;;;;;;9.96;28.42;96611.19;5106820;28;20510;-74
2022/03/11 10:48:17;;;;;;;17.92;9.82;;;;;;;9.86;28.55;96608.69;5108688;28;20050;-74
2022/03/11 10:50:44;;;;;;;15.98;10.13;;;;;;;9.87;28.51;96602.16;5110664;28;20058;-74
2022/03/11 10:53:13;;;;;;;18.42;10.85;;;;;;;9.94;29.62;96613.41;5109099;28;20044;-74
2022/03/11 10:55:43;;;;;;;19.10;9.60;;;;;;;10.10;28.69;96603.78;5110119;28;20051;-74
2022/03/11 10:58:16;;;;;;;15.70;10.13;;;;;;;10.04;28.26;96610.47;5111126;28;20419;-75
2022/03/11 11:00:45;;;;;;;19.00;8.95;;;;;;;10.00;28.19;96604.03;5115015;28;20080;-77
2022/03/11 11:03:13;;;;;;;21.58;9.90;;;;;;;9.96;28.80;96605.75;5115219;28;20574;-75
2022/03/11 11:05:40;;;;;;;18.65;10.50;;;;;;;9.98;28.87;96594.56;5111881;28;20538;-76
2022/03/11 11:08:09;;;;;;;16.17;9.35;;;;;;;9.94;28.02;96591.66;5113925;28;20047;-76
2022/03/11 11:10:38;;;;;;;23.08;10.48;;;;;;;10.02;28.37;96582.75;5112994;28;20101;-76
2022/03/11 11:13:06;;;;;;;15.57;10.07;;;;;;;10.11;28.62;96590.97;5111624;28;20086;-74
2022/03/11 11:15:33;;;;;;;15.02;9.57;;;;;;;9.99;28.21;96588.81;5112646;28;20055;-75
2022/03/11 11:18:07;;;;;;;21.02;10.80;;;;;;;9.96;28.20;96589.41;5113869;28;20543;-74
2022/03/11 11:20:41;;;;;;;19.00;10.13;;;;;;;9.93;28.56;96584.59;5113372;28;20040;-77
2022/03/11 11:23:11;;;;;;;19.95;10.20;;;;;;;9.85;29.44;96588.06;5114120;28;20119;-76
2022/03/11 11:25:38;;;;;;;22.98;10.77;;;;;;;9.89;28.50;96575.44;5113729;28;20607;-75
2022/03/11 11:28:08;;;;;;;17.83;10.27;;;;;;;9.99;28.51;96575.22;5111602;28;20048;-75